createdAt,value
2017-11-03T00:01:15.325Z,99.90
2017-11-03T00:03:43.584Z,99.90
2017-11-03T00:06:11.964Z,99.90
2017-11-03T00:08:40.209Z,99.90
2017-11-03T00:11:08.528Z,99.90
2017-11-03T00:13:36.784Z,99.90
2017-11-03T00:16:05.278Z,99.90
2017-11-03T00:18:33.539Z,99.90
2017-11-03T00:21:02.037Z,99.90
2017-11-03T00:23:31.089Z,99.90
2017-11-03T00:25:59.421Z,99.90
2017-11-03T00:28:27.787Z,99.90
2017-11-03T00:30:56.373Z,99.90
2017-11-03T00:33:24.875Z,99.90
2017-11-03T00:35:53.242Z,99.90
2017-11-03T00:38:21.528Z,99.90
2017-11-03T00:40:49.805Z,99.90
2017-11-03T00:43:18.052Z,99.90
2017-11-03T00:45:46.342Z,99.90
2017-11-03T00:48:14.614Z,99.90
2017-11-03T00:50:42.907Z,99.90
2017-11-03T00:53:11.281Z,99.90
2017-11-03T00:55:39.563Z,99.90
2017-11-03T00:58:07.820Z,99.90
2017-11-03T01:00:36.113Z,99.90
2017-11-03T01:03:04.364Z,99.90
2017-11-03T01:05:32.661Z,99.90
2017-11-03T01:08:00.912Z,99.90
2017-11-03T01:10:29.184Z,99.90
2017-11-03T01:12:57.437Z,99.90
2017-11-03T01:15:26.611Z,99.90
2017-11-03T01:17:54.966Z,99.90
2017-11-03T01:20:23.340Z,99.90
2017-11-03T01:22:51.617Z,99.90
2017-11-03T01:25:19.888Z,99.90
2017-11-03T01:27:48.146Z,99.90
2017-11-03T01:30:16.430Z,99.90
2017-11-03T01:32:44.680Z,99.90
2017-11-03T01:35:12.965Z,99.90
2017-11-03T01:37:41.286Z,99.90
2017-11-03T01:40:09.575Z,99.90
2017-11-03T01:42:37.859Z,99.90
2017-11-03T01:45:06.215Z,99.90
2017-11-03T01:47:34.489Z,99.90
2017-11-03T01:50:02.775Z,99.90
2017-11-03T01:52:31.020Z,99.90
2017-11-03T01:54:59.297Z,99.90
2017-11-03T01:57:27.578Z,99.90
2017-11-03T01:59:55.832Z,99.90
2017-11-03T02:02:24.159Z,99.90
2017-11-03T02:04:52.405Z,99.90
2017-11-03T02:07:20.672Z,99.90
2017-11-03T02:09:48.920Z,99.90
2017-11-03T02:12:17.982Z,99.90
2017-11-03T02:14:46.229Z,99.90
2017-11-03T02:17:14.505Z,99.90
2017-11-03T02:19:42.765Z,99.90
2017-11-03T02:22:11.032Z,99.90
2017-11-03T02:24:40.084Z,99.90
2017-11-03T02:27:08.348Z,99.90
2017-11-03T02:29:36.617Z,99.90
2017-11-03T02:32:04.910Z,99.90
2017-11-03T02:34:33.159Z,99.90
2017-11-03T02:37:01.443Z,99.90
2017-11-03T02:39:29.751Z,99.90
2017-11-03T02:41:58.026Z,99.90
2017-11-03T02:44:26.275Z,99.90
2017-11-03T02:46:54.545Z,99.90
2017-11-03T02:49:22.805Z,99.90
2017-11-03T02:51:51.087Z,99.90
2017-11-03T02:54:19.353Z,99.90
2017-11-03T02:56:48.398Z,99.90
2017-11-03T02:59:16.658Z,99.90
2017-11-03T03:01:44.975Z,99.90
2017-11-03T03:04:13.335Z,99.90
2017-11-03T03:06:41.616Z,99.90
2017-11-03T03:09:09.860Z,99.90
2017-11-03T03:11:38.138Z,99.90
2017-11-03T03:14:06.388Z,99.90
2017-11-03T03:16:35.431Z,99.90
2017-11-03T03:19:03.735Z,99.90
2017-11-03T03:21:32.003Z,99.90
2017-11-03T03:24:00.259Z,99.90
2017-11-03T03:26:28.532Z,99.90
2017-11-03T03:28:56.797Z,99.90
2017-11-03T03:31:25.074Z,99.90
2017-11-03T03:33:53.402Z,99.90
2017-11-03T03:36:21.663Z,99.90
2017-11-03T03:38:49.924Z,99.90
2017-11-03T03:41:18.187Z,99.90
2017-11-03T03:43:46.431Z,99.90
2017-11-03T03:46:15.464Z,99.90
2017-11-03T03:48:43.716Z,99.90
2017-11-03T03:51:11.986Z,99.90
2017-11-03T03:53:40.241Z,99.90
2017-11-03T03:56:09.275Z,99.90
2017-11-03T03:58:37.542Z,99.90
2017-11-03T04:01:05.826Z,99.90
2017-11-03T04:03:34.179Z,99.90
2017-11-03T04:06:03.336Z,99.90
2017-11-03T04:08:31.586Z,99.90
2017-11-03T04:10:59.881Z,99.90
2017-11-03T04:13:28.159Z,99.90
2017-11-03T04:15:56.454Z,99.90
2017-11-03T04:18:24.728Z,99.90
2017-11-03T04:20:53.092Z,99.90
2017-11-03T04:23:21.471Z,99.90
2017-11-03T04:25:49.758Z,99.90
2017-11-03T04:28:18.126Z,99.90
2017-11-03T04:30:46.381Z,99.90
2017-11-03T04:33:14.663Z,99.90
2017-11-03T04:35:42.957Z,99.90
2017-11-03T04:38:11.235Z,99.90
2017-11-03T04:40:39.513Z,99.90
2017-11-03T04:43:07.790Z,99.90
2017-11-03T04:45:36.074Z,99.90
2017-11-03T04:48:04.466Z,99.90
2017-11-03T04:50:32.734Z,99.90
2017-11-03T04:53:01.010Z,99.90
2017-11-03T04:55:29.264Z,99.90
2017-11-03T04:57:57.553Z,99.90
2017-11-03T05:00:25.805Z,99.90
2017-11-03T05:02:54.076Z,99.90
2017-11-03T05:05:22.349Z,99.90
2017-11-03T05:07:50.672Z,99.90
2017-11-03T05:10:18.957Z,99.90
2017-11-03T05:12:47.327Z,99.90
2017-11-03T05:15:15.598Z,99.90
2017-11-03T05:17:43.982Z,99.90
2017-11-03T05:20:12.568Z,99.90
2017-11-03T05:22:40.852Z,99.90
2017-11-03T05:25:09.935Z,99.90
2017-11-03T05:27:38.188Z,99.90
2017-11-03T05:30:06.480Z,99.90
2017-11-03T05:32:34.742Z,99.90
2017-11-03T05:35:03.034Z,99.90
2017-11-03T05:37:31.295Z,99.90
2017-11-03T05:39:59.566Z,99.90
2017-11-03T05:42:27.830Z,99.90
2017-11-03T05:44:56.101Z,99.90
2017-11-03T05:47:25.116Z,99.90
2017-11-03T05:49:53.413Z,99.90
2017-11-03T05:52:21.694Z,99.90
2017-11-03T05:54:49.978Z,99.90
2017-11-03T05:57:18.483Z,99.90
2017-11-03T05:59:46.834Z,99.90
2017-11-03T06:02:15.139Z,99.90
2017-11-03T06:04:43.431Z,99.90
2017-11-03T06:07:12.448Z,99.90
2017-11-03T06:09:40.761Z,99.90
2017-11-03T06:12:09.029Z,99.90
2017-11-03T06:14:37.318Z,99.90
2017-11-03T06:17:06.286Z,99.90
2017-11-03T06:19:34.557Z,99.90
2017-11-03T06:22:02.813Z,99.90
2017-11-03T06:24:31.132Z,99.90
2017-11-03T06:26:59.408Z,99.90
2017-11-03T06:29:27.692Z,99.90
2017-11-03T06:31:57.619Z,99.90
2017-11-03T06:34:25.995Z,99.90
2017-11-03T06:36:54.289Z,99.90
2017-11-03T06:39:22.660Z,99.90
2017-11-03T06:41:50.930Z,99.90
2017-11-03T06:44:19.310Z,99.90
2017-11-03T06:46:47.579Z,99.90
2017-11-03T06:49:15.974Z,99.90
2017-11-03T06:51:45.766Z,99.90
2017-11-03T06:54:14.151Z,99.90
2017-11-03T06:56:42.441Z,99.90
2017-11-03T06:59:10.726Z,99.90
2017-11-03T07:01:38.988Z,99.90
2017-11-03T07:04:07.278Z,99.90
2017-11-03T07:06:35.531Z,99.90
2017-11-03T07:09:03.819Z,99.90
2017-11-03T07:11:32.096Z,99.90
2017-11-03T07:14:00.479Z,99.90
2017-11-03T07:16:28.844Z,99.90
2017-11-03T07:18:57.219Z,99.90
2017-11-03T07:21:25.522Z,99.90
2017-11-03T07:23:53.994Z,99.90
2017-11-03T07:26:22.384Z,99.90
2017-11-03T07:28:50.750Z,99.90
2017-11-03T07:31:19.234Z,99.90
2017-11-03T07:33:47.484Z,99.90
2017-11-03T07:36:15.769Z,99.90
2017-11-03T07:38:44.021Z,99.90
2017-11-03T07:41:12.319Z,99.90
2017-11-03T07:43:40.592Z,99.90
2017-11-03T07:46:08.864Z,99.90
2017-11-03T07:48:37.141Z,99.90
2017-11-03T07:51:05.428Z,99.90
2017-11-03T07:53:33.720Z,99.90
2017-11-03T07:56:02.002Z,99.90
2017-11-03T07:58:30.264Z,99.90
2017-11-03T08:00:58.549Z,99.90
2017-11-03T08:03:26.869Z,99.90
2017-11-03T08:05:55.920Z,99.90
2017-11-03T08:08:24.196Z,99.90
2017-11-03T08:10:52.579Z,99.90
2017-11-03T08:13:20.859Z,99.90
2017-11-03T08:15:49.173Z,99.90
2017-11-03T08:18:18.275Z,99.90
2017-11-03T08:20:47.331Z,99.90
2017-11-03T08:23:15.599Z,99.90
2017-11-03T08:25:43.977Z,99.90
2017-11-03T08:28:12.256Z,99.90
2017-11-03T08:30:40.643Z,99.90
2017-11-03T08:33:08.923Z,99.90
2017-11-03T08:35:37.189Z,99.90
2017-11-03T08:38:05.475Z,99.90
2017-11-03T08:40:33.744Z,99.90
2017-11-03T08:43:02.020Z,99.90
2017-11-03T08:45:30.296Z,99.90
2017-11-03T08:47:58.590Z,99.90
2017-11-03T08:50:26.859Z,99.90
2017-11-03T08:52:55.123Z,99.90
2017-11-03T08:55:23.409Z,99.90
2017-11-03T08:57:52.264Z,99.90
2017-11-03T09:00:20.580Z,99.90
2017-11-03T09:02:48.837Z,99.90
2017-11-03T09:05:17.110Z,99.90
2017-11-03T09:07:45.379Z,99.90
2017-11-03T09:10:13.670Z,99.90
2017-11-03T09:12:41.922Z,99.90
2017-11-03T09:15:10.196Z,99.90
2017-11-03T09:17:38.452Z,99.90
2017-11-03T09:20:07.619Z,99.90
2017-11-03T09:22:35.893Z,99.90
2017-11-03T09:25:04.174Z,99.90
2017-11-03T09:27:32.458Z,99.90
2017-11-03T09:30:00.737Z,99.90
2017-11-03T09:32:29.015Z,99.90
2017-11-03T09:34:57.486Z,99.90
2017-11-03T09:37:25.772Z,99.90
2017-11-03T09:39:54.037Z,99.90
2017-11-03T09:42:22.312Z,99.90
2017-11-03T09:44:50.585Z,99.90
2017-11-03T09:47:18.959Z,99.90
2017-11-03T09:49:47.228Z,99.90
2017-11-03T09:52:15.496Z,99.90
2017-11-03T09:54:43.775Z,99.90
2017-11-03T09:57:12.180Z,99.90
2017-11-03T09:59:40.439Z,99.90
2017-11-03T10:02:08.724Z,99.90
2017-11-03T10:04:37.006Z,99.90
2017-11-03T10:07:05.399Z,99.90
2017-11-03T10:09:33.656Z,99.90
2017-11-03T10:12:02.042Z,99.90
2017-11-03T10:14:30.304Z,99.90
2017-11-03T10:16:58.602Z,99.90
2017-11-03T10:19:26.847Z,99.90
2017-11-03T10:21:55.166Z,99.90
2017-11-03T10:24:23.432Z,99.90
2017-11-03T10:26:51.818Z,99.90
2017-11-03T10:29:20.089Z,99.90
2017-11-03T10:31:48.349Z,99.90
2017-11-03T10:34:16.748Z,99.90
2017-11-03T10:36:45.019Z,99.90
2017-11-03T10:39:13.295Z,99.90
2017-11-03T10:41:41.587Z,99.90
2017-11-03T10:44:09.852Z,99.90
2017-11-03T10:46:38.233Z,99.90
2017-11-03T10:49:06.480Z,99.90
2017-11-03T10:51:34.770Z,99.90
2017-11-03T10:54:03.034Z,99.90
2017-11-03T10:56:31.317Z,99.90
2017-11-03T10:58:59.590Z,99.90
2017-11-03T11:01:27.849Z,99.90
2017-11-03T11:03:56.166Z,99.90
2017-11-03T11:06:24.461Z,99.90
2017-11-03T11:08:52.733Z,99.90
2017-11-03T11:11:21.002Z,99.90
2017-11-03T11:13:49.300Z,99.90
2017-11-03T11:16:17.568Z,99.90
2017-11-03T11:18:45.850Z,99.90
2017-11-03T11:21:14.121Z,99.90
2017-11-03T11:23:42.397Z,99.90
2017-11-03T11:26:10.692Z,99.90
2017-11-03T11:28:38.951Z,99.90
2017-11-03T11:31:07.208Z,99.90
2017-11-03T11:33:35.589Z,99.90
2017-11-03T11:36:03.871Z,99.90
2017-11-03T11:38:32.158Z,99.90
2017-11-03T11:41:00.434Z,99.90
2017-11-03T11:43:28.911Z,99.90
2017-11-03T11:45:57.184Z,99.90
2017-11-03T11:48:25.465Z,99.90
2017-11-03T11:50:53.736Z,99.90
2017-11-03T11:53:22.009Z,99.90
2017-11-03T11:55:50.275Z,99.90
2017-11-03T11:58:18.570Z,99.90
2017-11-03T12:00:46.843Z,99.90
2017-11-03T12:03:15.117Z,99.90
2017-11-03T12:05:43.406Z,99.90
2017-11-03T12:08:11.668Z,99.90
2017-11-03T12:10:39.925Z,99.90
2017-11-03T12:13:08.209Z,99.90
2017-11-03T12:15:36.502Z,99.90
2017-11-03T12:18:04.788Z,99.90
2017-11-03T12:20:33.067Z,99.90
2017-11-03T12:23:01.445Z,99.90
2017-11-03T12:25:29.712Z,99.90
2017-11-03T12:27:57.987Z,99.90
2017-11-03T12:30:26.277Z,99.90
2017-11-03T12:32:54.551Z,99.90
2017-11-03T12:35:22.828Z,99.90
2017-11-03T12:37:51.140Z,99.90
2017-11-03T12:40:20.179Z,99.90
2017-11-03T12:42:48.440Z,99.90
2017-11-03T12:45:16.716Z,99.90
2017-11-03T12:47:45.022Z,99.90
2017-11-03T12:50:13.316Z,99.90
2017-11-03T12:52:41.568Z,99.90
2017-11-03T12:55:09.852Z,99.90
2017-11-03T12:57:38.125Z,99.90
2017-11-03T13:00:06.725Z,99.90
2017-11-03T13:02:35.096Z,99.90
2017-11-03T13:05:03.485Z,99.90
2017-11-03T13:07:31.744Z,99.90
2017-11-03T13:10:00.021Z,99.90
2017-11-03T13:12:28.280Z,99.90
2017-11-03T13:14:56.562Z,99.90
2017-11-03T13:17:24.815Z,99.90
2017-11-03T13:19:53.852Z,99.90
2017-11-03T13:22:22.123Z,99.90
2017-11-03T13:24:50.410Z,99.90
2017-11-03T13:27:18.682Z,99.90
2017-11-03T13:29:46.972Z,99.90
2017-11-03T13:32:15.232Z,99.90
2017-11-03T13:34:43.621Z,99.90
2017-11-03T13:37:11.872Z,99.90
2017-11-03T13:39:40.181Z,99.90
2017-11-03T13:42:08.457Z,99.90
2017-11-03T13:44:36.825Z,99.90
2017-11-03T13:47:05.105Z,99.90
2017-11-03T13:49:33.381Z,99.90
2017-11-03T13:52:01.671Z,99.90
2017-11-03T13:54:29.936Z,99.90
2017-11-03T13:56:58.207Z,99.90
2017-11-03T13:59:26.478Z,99.90
2017-11-03T14:01:54.742Z,99.90
2017-11-03T14:04:23.015Z,99.90
2017-11-03T14:06:51.274Z,99.90
2017-11-03T14:09:20.316Z,99.90
2017-11-03T14:11:48.573Z,99.90
2017-11-03T14:14:16.850Z,99.90
2017-11-03T14:16:45.105Z,99.90
2017-11-03T14:19:13.381Z,99.90
2017-11-03T14:21:41.658Z,99.90
2017-11-03T14:24:10.796Z,99.90
2017-11-03T14:26:39.076Z,99.90
2017-11-03T14:29:07.492Z,99.90
2017-11-03T14:31:35.843Z,99.90
2017-11-03T14:34:04.084Z,97.20
2017-11-03T14:36:32.362Z,92.70
2017-11-03T14:39:00.616Z,88.20
2017-11-03T14:41:28.935Z,78.30
2017-11-03T14:43:57.192Z,76.50
2017-11-03T14:46:25.478Z,81.30
2017-11-03T14:48:53.733Z,77.50
2017-11-03T14:51:22.020Z,78.50
2017-11-03T14:53:50.284Z,74.70
2017-11-03T14:56:18.567Z,73.30
2017-11-03T14:58:46.838Z,72.90
2017-11-03T15:01:15.111Z,71.90
2017-11-03T15:03:43.378Z,72.30
2017-11-03T15:06:12.425Z,74.70
2017-11-03T15:08:40.732Z,74.50
2017-11-03T15:11:09.001Z,78.10
2017-11-03T15:13:37.269Z,78.20
2017-11-03T15:16:05.551Z,80.60
2017-11-03T15:18:33.822Z,85.50
2017-11-03T15:21:02.105Z,88.70
2017-11-03T15:23:30.381Z,91.60
2017-11-03T15:25:58.653Z,95.20
2017-11-03T15:28:26.924Z,97.90
2017-11-03T15:30:55.223Z,99.90
2017-11-03T15:33:23.492Z,99.90
2017-11-03T15:35:51.864Z,99.90
2017-11-03T15:38:20.134Z,99.90
2017-11-03T15:40:48.537Z,99.90
2017-11-03T15:43:16.794Z,99.90
2017-11-03T15:45:45.176Z,99.90
2017-11-03T15:48:13.555Z,99.90
2017-11-03T15:50:41.821Z,99.90
2017-11-03T15:53:10.096Z,99.90
2017-11-03T15:55:38.384Z,99.90
2017-11-03T15:58:06.656Z,99.90
2017-11-03T16:00:35.041Z,99.90
2017-11-03T16:03:03.296Z,99.90
2017-11-03T16:05:31.576Z,99.90
2017-11-03T16:07:59.839Z,99.90
2017-11-03T16:10:28.116Z,99.90
2017-11-03T16:12:56.376Z,99.90
2017-11-03T16:15:24.702Z,99.90
2017-11-03T16:17:52.959Z,99.90
2017-11-03T16:20:21.249Z,99.90
2017-11-03T16:22:49.509Z,99.90
2017-11-03T16:25:17.779Z,99.90
2017-11-03T16:27:46.080Z,99.90
2017-11-03T16:30:14.486Z,99.90
2017-11-03T16:32:42.762Z,99.90
2017-11-03T16:35:11.063Z,99.90
2017-11-03T16:37:40.108Z,99.90
2017-11-03T16:40:08.368Z,99.90
2017-11-03T16:42:36.764Z,99.90
2017-11-03T16:45:05.035Z,99.90
2017-11-03T16:47:33.312Z,99.90
2017-11-03T16:50:01.577Z,99.90
2017-11-03T16:52:29.886Z,99.90
2017-11-03T16:54:58.144Z,99.90
2017-11-03T16:57:26.544Z,99.90
2017-11-03T16:59:54.913Z,99.90
2017-11-03T17:02:23.206Z,99.90
2017-11-03T17:04:51.465Z,99.90
2017-11-03T17:07:19.740Z,99.90
2017-11-03T17:09:48.021Z,99.90
2017-11-03T17:12:16.302Z,99.90
2017-11-03T17:14:44.571Z,99.90
2017-11-03T17:17:12.850Z,99.90
2017-11-03T17:19:41.134Z,99.90
2017-11-03T17:22:09.528Z,99.90
2017-11-03T17:24:37.789Z,99.90
2017-11-03T17:27:06.095Z,99.90
2017-11-03T17:29:35.129Z,99.90
2017-11-03T17:32:03.410Z,99.90
2017-11-03T17:34:31.709Z,99.90
2017-11-03T17:36:59.989Z,99.90
2017-11-03T17:39:28.250Z,99.90
2017-11-03T17:41:56.525Z,99.90
2017-11-03T17:44:24.827Z,99.90
2017-11-03T17:46:53.108Z,99.90
2017-11-03T17:49:22.137Z,99.90
2017-11-03T17:51:51.160Z,99.90
2017-11-03T17:54:19.479Z,99.90
2017-11-03T17:56:47.734Z,99.90
2017-11-03T17:59:16.024Z,99.90
2017-11-03T18:01:44.304Z,99.90
2017-11-03T18:04:12.589Z,99.90
2017-11-03T18:06:40.967Z,99.90
2017-11-03T18:09:09.240Z,99.90
2017-11-03T18:11:37.500Z,99.90
2017-11-03T18:14:05.787Z,99.90
2017-11-03T18:16:34.039Z,99.90
2017-11-03T18:19:02.323Z,99.90
2017-11-03T18:21:30.681Z,99.90
2017-11-03T18:23:58.946Z,99.90
2017-11-03T18:26:27.285Z,99.90
2017-11-03T18:28:55.649Z,99.90
2017-11-03T18:31:23.926Z,99.90
2017-11-03T18:33:52.200Z,99.90
2017-11-03T18:36:20.479Z,99.90
2017-11-03T18:38:48.865Z,99.90
2017-11-03T18:41:17.109Z,99.90
2017-11-03T18:43:45.412Z,99.90
2017-11-03T18:46:13.676Z,99.90
2017-11-03T18:48:41.968Z,99.90
2017-11-03T18:51:10.228Z,99.90
2017-11-03T18:53:38.515Z,99.90
2017-11-03T18:56:06.763Z,99.90
2017-11-03T18:58:35.044Z,99.90
2017-11-03T19:01:03.325Z,99.90
2017-11-03T19:03:32.460Z,99.90
2017-11-03T19:06:00.717Z,99.90
2017-11-03T19:08:29.004Z,99.90
2017-11-03T19:10:57.373Z,99.90
2017-11-03T19:13:25.755Z,99.90
2017-11-03T19:15:54.016Z,99.90
2017-11-03T19:18:22.445Z,99.90
2017-11-03T19:20:50.706Z,99.90
2017-11-03T19:23:18.986Z,99.90
2017-11-03T19:25:47.278Z,99.90
2017-11-03T19:28:15.585Z,99.90
2017-11-03T19:30:43.840Z,99.90
2017-11-03T19:33:12.894Z,99.90
2017-11-03T19:35:41.265Z,99.90
2017-11-03T19:38:09.525Z,99.90
2017-11-03T19:40:37.826Z,99.90
2017-11-03T19:43:06.092Z,99.90
2017-11-03T19:45:34.390Z,99.90
2017-11-03T19:48:03.412Z,99.90
2017-11-03T19:50:32.461Z,99.90
2017-11-03T19:53:00.854Z,99.90
2017-11-03T19:55:29.163Z,99.90
2017-11-03T19:57:58.329Z,99.90
2017-11-03T20:00:26.754Z,99.90
2017-11-03T20:02:55.833Z,99.90
2017-11-03T20:05:24.224Z,99.90
2017-11-03T20:07:53.264Z,99.90
2017-11-03T20:10:21.550Z,99.90
2017-11-03T20:12:49.809Z,99.90
2017-11-03T20:15:18.097Z,99.90
2017-11-03T20:17:46.375Z,99.90
2017-11-03T20:20:14.780Z,99.90
2017-11-03T20:22:43.183Z,99.90
2017-11-03T20:25:12.220Z,99.90
2017-11-03T20:27:40.561Z,99.90
2017-11-03T20:30:09.595Z,99.90
2017-11-03T20:32:37.857Z,99.90
2017-11-03T20:35:06.375Z,99.90
2017-11-03T20:37:35.421Z,99.90
2017-11-03T20:40:03.688Z,99.90
2017-11-03T20:42:32.737Z,99.90
2017-11-03T20:45:00.998Z,99.90
2017-11-03T20:47:29.287Z,99.90
2017-11-03T20:49:57.553Z,99.90
2017-11-03T20:52:25.862Z,99.90
2017-11-03T20:54:54.899Z,99.90
2017-11-03T20:57:23.180Z,99.90
2017-11-03T20:59:51.449Z,99.90
2017-11-03T21:02:19.741Z,99.90
2017-11-03T21:04:48.005Z,99.90
2017-11-03T21:07:16.318Z,99.90
2017-11-03T21:09:44.586Z,99.90
2017-11-03T21:12:12.860Z,99.90
2017-11-03T21:14:41.124Z,99.90
2017-11-03T21:17:09.407Z,99.90
2017-11-03T21:19:37.660Z,99.90
2017-11-03T21:22:05.980Z,99.90
2017-11-03T21:24:34.274Z,99.90
2017-11-03T21:27:02.649Z,99.90
2017-11-03T21:29:31.003Z,99.90
2017-11-03T21:31:59.292Z,99.90
2017-11-03T21:34:27.552Z,99.90
2017-11-03T21:36:55.856Z,99.90
2017-11-03T21:39:24.112Z,99.90
2017-11-03T21:41:52.436Z,99.90
2017-11-03T21:44:20.712Z,99.90
2017-11-03T21:46:48.977Z,99.90
2017-11-03T21:49:18.004Z,99.90
2017-11-03T21:51:46.304Z,99.90
2017-11-03T21:54:14.566Z,99.90
2017-11-03T21:56:42.850Z,99.90
2017-11-03T21:59:11.143Z,99.90
2017-11-03T22:01:39.410Z,99.90
2017-11-03T22:04:07.674Z,99.90
2017-11-03T22:06:35.953Z,99.90
2017-11-03T22:09:04.224Z,99.90
2017-11-03T22:11:32.638Z,99.90
2017-11-03T22:14:00.883Z,99.90
2017-11-03T22:16:29.346Z,99.90
2017-11-03T22:18:58.381Z,99.90
2017-11-03T22:21:26.683Z,99.90
2017-11-03T22:23:54.940Z,99.90
2017-11-03T22:26:23.447Z,99.90
2017-11-03T22:28:51.718Z,99.90
2017-11-03T22:31:20.032Z,99.90
2017-11-03T22:33:49.080Z,99.90
2017-11-03T22:36:17.348Z,99.90
2017-11-03T22:38:45.629Z,99.90
2017-11-03T22:41:13.905Z,99.90
2017-11-03T22:43:42.179Z,99.90
2017-11-03T22:46:10.443Z,99.90
2017-11-03T22:48:38.728Z,99.90
2017-11-03T22:51:06.984Z,99.90
2017-11-03T22:53:35.278Z,99.90
2017-11-03T22:56:03.590Z,99.90
2017-11-03T22:58:31.868Z,99.90
2017-11-03T23:01:00.133Z,99.90
2017-11-03T23:03:28.418Z,99.90
2017-11-03T23:05:56.694Z,99.90
2017-11-03T23:08:25.026Z,99.90
2017-11-03T23:10:53.312Z,99.90
2017-11-03T23:13:21.625Z,99.90
2017-11-03T23:15:49.997Z,99.90
2017-11-03T23:18:18.278Z,99.90
2017-11-03T23:20:46.563Z,99.90
2017-11-03T23:23:14.828Z,99.90
2017-11-03T23:25:43.108Z,99.90
2017-11-03T23:28:11.512Z,99.90
2017-11-03T23:30:39.773Z,99.90
2017-11-03T23:33:08.157Z,99.90
2017-11-03T23:35:36.525Z,99.90
2017-11-03T23:38:04.922Z,99.90
2017-11-03T23:40:33.176Z,99.90
2017-11-03T23:43:01.467Z,99.90
2017-11-03T23:45:29.715Z,99.90
2017-11-03T23:47:57.996Z,99.90
2017-11-03T23:50:26.262Z,99.90
2017-11-03T23:52:54.539Z,99.90
2017-11-03T23:55:22.792Z,99.90
2017-11-03T23:57:51.953Z,99.90
